イヌヴィック の空港の天気 - METARとTAF

イヌヴィック空港 ( CYEV / YEV ) - カナダ ノースウエスト準州イヌヴィック
飛行場実況気象(Metar)
観測時間04/24 10:00 MDT (04/24 16:00 UTC)
風向・風速北北西 3m/s
視程10km以上
天気現象
少しの雲 雲底高度 7010m
気温-12℃
湿度61%
気圧1026.5hPa
METARCYEV 241600Z 34005KT 320V060 15SM FEW230 M12/M18 A3029 RMK CI1 SLP265
過去の天気等 Google飛行場航空写真 Wunderground天気予報

過去48時間のMETAR

飛行場予報(TAF)
発表時間: 4/24 06:39 MDT (4/24 12:39 UTC)
予報対象時間: 24日7時 MDT ~ 24日19時 MDT
風向・風速北 5m/s 瞬間風速 10m/s
視程10km以上
少しの雲 雲底高度 180m
全天の8割程度の雲 雲底高度 6100m
24日13時 MDT から
風向・風速北東 4m/s
視程10km以上
なし
TAF CYEV 241239Z 2413/2501 01010G20KT P6SM FEW006 BKN200
FM241900 04008KT P6SM SKC RMK NXT FCST BY 241900Z